Mitra — PBZW — position and weather

sailwx.info

Track history (hours):
 
Tides and Currents Weather Stations Pressure Air Temp Water Temp Dewpoint Dewpoint Depression Visibility Wind Speed Wind Dir Waves Ship Positions

Oceanographic research ship Mitra (Netherlands)

Detailed information on ship capabilities available from University of Delaware's Ocean Information Center.

Last reported at 2017-Apr-18 11:56 UTC. Time now 2017-Apr-27 16:42 UTC.
Position S 24°41' W 046°33'.
Warning: this ship's position is 9 days out of date.

Length 223 m; draft 10.4 m.

Type: Ship (hazmat cat A). MMSI: 244670078.

Date/timePositionNaut miles runAvg speedWind from/ knotsBaromVisibWave heightAir tempDewpointWater temp
2017-Apr-18 11:56S 24°41' W 046°33'613.3
2017-Apr-18 11:30S 24°36' W 046°31'713.1
2017-Apr-18 11:01S 24°30' W 046°30'713.0
2017-Apr-18 10:30S 24°23' W 046°30'712.9
2017-Apr-18 10:00S 24°17' W 046°28'613.1
2017-Apr-18 09:31S 24°11' W 046°25'713.4
2017-Apr-18 09:00S 24°05' W 046°22'510.4
2017-Apr-18 08:31S 24°00' W 046°20'3 5.3
2017-Apr-18 07:57S 23°58' W 046°18'0 0.0
2017-Apr-18 05:09S 23°58' W 046°18'0 0.0
2017-Apr-18 04:51S 23°58' W 046°18'0 0.0
2017-Apr-18 03:36S 23°58' W 046°18'0 0.0
2017-Apr-18 02:18S 23°58' W 046°18'0 0.0
2017-Apr-18 02:00S 23°58' W 046°18'0 0.0
2017-Apr-18 01:18S 23°58' W 046°18'0 0.0
2017-Apr-18 01:00S 23°58' W 046°18'0 0.0
2017-Apr-18 00:24S 23°58' W 046°18'0 0.0
2017-Apr-17 23:54S 23°58' W 046°18'0 0.0
2017-Apr-17 23:30S 23°58' W 046°18'0 0.0
2017-Apr-17 22:57S 23°58' W 046°18'0 0.0
2017-Apr-17 22:30S 23°58' W 046°18'0 0.0
2017-Apr-17 22:00S 23°58' W 046°18'0 0.0
2017-Apr-17 21:24S 23°58' W 046°18'0 0.0
2017-Apr-17 21:00S 23°58' W 046°18'0 0.0
2017-Apr-17 20:30S 23°58' W 046°18'0 0.0
2017-Apr-17 20:00S 23°58' W 046°18'0 0.0
2017-Apr-17 19:30S 23°58' W 046°18'0 0.0
2017-Apr-17 18:54S 23°58' W 046°18'0 0.0
2017-Apr-17 18:24S 23°58' W 046°18'0 0.0
2017-Apr-17 16:39S 23°58' W 046°18'0 0.0
2017-Apr-17 16:09S 23°58' W 046°18'0 0.0
2017-Apr-17 15:57S 23°58' W 046°18'0 0.0
2017-Apr-17 15:27S 23°58' W 046°18'0 0.0
2017-Apr-17 14:54S 23°58' W 046°18'0 0.0
2017-Apr-17 13:42S 23°58' W 046°18'0 0.0
2017-Apr-17 12:48S 23°58' W 046°18'0 0.0
2017-Apr-17 12:27S 23°58' W 046°18'0 0.0
2017-Apr-17 11:15S 23°58' W 046°18'0 0.0
2017-Apr-17 10:57S 23°58' W 046°18'0 0.0
2017-Apr-17 10:15S 23°58' W 046°18'0 0.0
2017-Apr-17 09:57S 23°58' W 046°18'1 2.5
2017-Apr-17 09:28S 23°59' W 046°17'3 7.4
2017-Apr-17 09:00S 24°01' W 046°20'510.6
2017-Apr-17 08:30S 24°06' W 046°22'510.1
2017-Apr-17 08:00S 24°09' W 046°18'0 0.1
2017-Apr-17 07:30S 24°09' W 046°18'0 0.0
2017-Apr-17 06:57S 24°09' W 046°18'0 0.0
2017-Apr-17 06:30S 24°09' W 046°18'0 0.1
2017-Apr-17 05:57S 24°09' W 046°18'0 0.0
2017-Apr-17 05:27S 24°09' W 046°18'0 0.0
2017-Apr-17 05:00S 24°09' W 046°18'0 0.0
2017-Apr-17 04:24S 24°09' W 046°18'0 0.1
2017-Apr-17 04:00S 24°09' W 046°18'0 0.0
2017-Apr-17 03:24S 24°09' W 046°18'0 0.0
2017-Apr-17 02:57S 24°09' W 046°18'0 0.0
2017-Apr-17 02:30S 24°09' W 046°18'0 0.0
2017-Apr-17 01:45S 24°09' W 046°18'0 0.0
2017-Apr-17 01:24S 24°09' W 046°18'0 0.0
2017-Apr-17 00:48S 24°09' W 046°18'0 0.1
2017-Apr-17 00:30S 24°09' W 046°18'0 0.4
2017-Apr-17 00:00S 24°09' W 046°18'1 2.3
2017-Apr-16 23:30S 24°10' W 046°19'3 6.5
2017-Apr-16 23:00S 24°13' W 046°20'510.0
2017-Apr-16 22:30S 24°15' W 046°15'612.5
2017-Apr-16 21:59S 24°15' W 046°08'2113.0
2017-Apr-16 20:21S 24°18' W 045°45'16013.0
2017-Apr-16 08:00S 23°02' W 043°10'612.0
2017-Apr-16 07:30S 22°56' W 043°08'3 6.7
2017-Apr-16 07:00S 22°53' W 043°10'2 4.3
2017-Apr-16 06:30S 22°52' W 043°12'0 0.1
2017-Apr-16 05:58S 22°52' W 043°12'0 0.0
2017-Apr-16 05:28S 22°52' W 043°12'0 0.0
2017-Apr-16 04:58S 22°52' W 043°12'0 0.0
2017-Apr-16 04:28S 22°52' W 043°12'0 0.0
2017-Apr-16 03:58S 22°52' W 043°12'0 0.0
2017-Apr-16 03:22S 22°52' W 043°12'0 0.0
2017-Apr-16 02:58S 22°52' W 043°12'0 0.0
2017-Apr-16 02:28S 22°52' W 043°12'0 0.0
2017-Apr-16 01:58S 22°52' W 043°12'0 0.0
2017-Apr-16 01:22S 22°52' W 043°12'0 0.0
2017-Apr-16 00:58S 22°52' W 043°12'0 0.0
2017-Apr-16 00:28S 22°52' W 043°12'0 0.0
2017-Apr-15 23:58S 22°52' W 043°12'0 0.0
2017-Apr-15 23:28S 22°52' W 043°12'0 0.0
2017-Apr-15 22:58S 22°52' W 043°12'0 0.0
2017-Apr-15 22:28S 22°52' W 043°12'0 0.0
2017-Apr-15 21:58S 22°52' W 043°12'0 0.0
2017-Apr-15 21:28S 22°52' W 043°12'0 0.0
2017-Apr-15 20:58S 22°52' W 043°12'0 0.0
2017-Apr-15 20:28S 22°52' W 043°12'0 0.0
2017-Apr-15 20:00S 22°52' W 043°12'2 3.4
2017-Apr-15 19:30S 22°53' W 043°11'4 7.7
2017-Apr-15 19:01S 22°57' W 043°09'611.6
2017-Apr-15 18:30S 23°02' W 043°07'1 0.4
2017-Apr-15 16:59S 23°03' W 043°07'0 0.0
2017-Apr-15 16:29S 23°03' W 043°07'0 0.0
2017-Apr-15 15:47S 23°03' W 043°07'0 0.0
2017-Apr-15 15:23S 23°03' W 043°07'0 0.0
2017-Apr-15 14:53S 23°03' W 043°07'0 0.0
2017-Apr-15 14:29S 23°03' W 043°07'0 0.1
2017-Apr-15 13:23S 23°03' W 043°07'0 0.2
2017-Apr-15 12:59S 23°03' W 043°07'1 2.4
2017-Apr-15 12:30S 23°04' W 043°07'610.9
2017-Apr-15 11:57S 23°08' W 043°13'  
2017-Apr-12 14:29S 27°27' W 048°13'1413.9
2017-Apr-12 13:30S 27°41' W 048°13'815.4
2017-Apr-12 12:59S 27°49' W 048°15'  
Track history (hours):
 
Tides and Currents Weather Stations Pressure Air Temp Water Temp Dewpoint Dewpoint Depression Visibility Wind Speed Wind Dir Waves Ship Positions

Oceanographic research ship Mitra (Netherlands)

Detailed information on ship capabilities available from University of Delaware's Ocean Information Center.

Last reported at 2017-Apr-18 11:56 UTC. Time now 2017-Apr-27 16:42 UTC.
Position S 24°41' W 046°33'.
Warning: this ship's position is 9 days out of date.

Length 223 m; draft 10.4 m.

Type: Ship (hazmat cat A). MMSI: 244670078.

Date/timePositionNaut miles runAvg speedWind from/ knotsBaromVisibWave heightAir tempDewpointWater temp
2017-Apr-18 11:56S 24°41' W 046°33'613.3
2017-Apr-18 11:30S 24°36' W 046°31'713.1
2017-Apr-18 11:01S 24°30' W 046°30'713.0
2017-Apr-18 10:30S 24°23' W 046°30'712.9
2017-Apr-18 10:00S 24°17' W 046°28'613.1
2017-Apr-18 09:31S 24°11' W 046°25'713.4
2017-Apr-18 09:00S 24°05' W 046°22'510.4
2017-Apr-18 08:31S 24°00' W 046°20'3 5.3
2017-Apr-18 07:57S 23°58' W 046°18'0 0.0
2017-Apr-18 05:09S 23°58' W 046°18'0 0.0
2017-Apr-18 04:51S 23°58' W 046°18'0 0.0
2017-Apr-18 03:36S 23°58' W 046°18'0 0.0
2017-Apr-18 02:18S 23°58' W 046°18'0 0.0
2017-Apr-18 02:00S 23°58' W 046°18'0 0.0
2017-Apr-18 01:18S 23°58' W 046°18'0 0.0
2017-Apr-18 01:00S 23°58' W 046°18'0 0.0
2017-Apr-18 00:24S 23°58' W 046°18'0 0.0
2017-Apr-17 23:54S 23°58' W 046°18'0 0.0
2017-Apr-17 23:30S 23°58' W 046°18'0 0.0
2017-Apr-17 22:57S 23°58' W 046°18'0 0.0
2017-Apr-17 22:30S 23°58' W 046°18'0 0.0
2017-Apr-17 22:00S 23°58' W 046°18'0 0.0
2017-Apr-17 21:24S 23°58' W 046°18'0 0.0
2017-Apr-17 21:00S 23°58' W 046°18'0 0.0
2017-Apr-17 20:30S 23°58' W 046°18'0 0.0
2017-Apr-17 20:00S 23°58' W 046°18'0 0.0
2017-Apr-17 19:30S 23°58' W 046°18'0 0.0
2017-Apr-17 18:54S 23°58' W 046°18'0 0.0
2017-Apr-17 18:24S 23°58' W 046°18'0 0.0
2017-Apr-17 16:39S 23°58' W 046°18'0 0.0
2017-Apr-17 16:09S 23°58' W 046°18'0 0.0
2017-Apr-17 15:57S 23°58' W 046°18'0 0.0
2017-Apr-17 15:27S 23°58' W 046°18'0 0.0
2017-Apr-17 14:54S 23°58' W 046°18'0 0.0
2017-Apr-17 13:42S 23°58' W 046°18'0 0.0
2017-Apr-17 12:48S 23°58' W 046°18'0 0.0
2017-Apr-17 12:27S 23°58' W 046°18'0 0.0
2017-Apr-17 11:15S 23°58' W 046°18'0 0.0
2017-Apr-17 10:57S 23°58' W 046°18'0 0.0
2017-Apr-17 10:15S 23°58' W 046°18'0 0.0
2017-Apr-17 09:57S 23°58' W 046°18'1 2.5
2017-Apr-17 09:28S 23°59' W 046°17'3 7.4
2017-Apr-17 09:00S 24°01' W 046°20'510.6
2017-Apr-17 08:30S 24°06' W 046°22'510.1
2017-Apr-17 08:00S 24°09' W 046°18'0 0.1
2017-Apr-17 07:30S 24°09' W 046°18'0 0.0
2017-Apr-17 06:57S 24°09' W 046°18'0 0.0
2017-Apr-17 06:30S 24°09' W 046°18'0 0.1
2017-Apr-17 05:57S 24°09' W 046°18'0 0.0
2017-Apr-17 05:27S 24°09' W 046°18'0 0.0
2017-Apr-17 05:00S 24°09' W 046°18'0 0.0
2017-Apr-17 04:24S 24°09' W 046°18'0 0.1
2017-Apr-17 04:00S 24°09' W 046°18'0 0.0
2017-Apr-17 03:24S 24°09' W 046°18'0 0.0
2017-Apr-17 02:57S 24°09' W 046°18'0 0.0
2017-Apr-17 02:30S 24°09' W 046°18'0 0.0
2017-Apr-17 01:45S 24°09' W 046°18'0 0.0
2017-Apr-17 01:24S 24°09' W 046°18'0 0.0
2017-Apr-17 00:48S 24°09' W 046°18'0 0.1
2017-Apr-17 00:30S 24°09' W 046°18'0 0.4
2017-Apr-17 00:00S 24°09' W 046°18'1 2.3
2017-Apr-16 23:30S 24°10' W 046°19'3 6.5
2017-Apr-16 23:00S 24°13' W 046°20'510.0
2017-Apr-16 22:30S 24°15' W 046°15'612.5
2017-Apr-16 21:59S 24°15' W 046°08'2113.0
2017-Apr-16 20:21S 24°18' W 045°45'16013.0
2017-Apr-16 08:00S 23°02' W 043°10'612.0
2017-Apr-16 07:30S 22°56' W 043°08'3 6.7
2017-Apr-16 07:00S 22°53' W 043°10'2 4.3
2017-Apr-16 06:30S 22°52' W 043°12'0 0.1
2017-Apr-16 05:58S 22°52' W 043°12'0 0.0
2017-Apr-16 05:28S 22°52' W 043°12'0 0.0
2017-Apr-16 04:58S 22°52' W 043°12'0 0.0
2017-Apr-16 04:28S 22°52' W 043°12'0 0.0
2017-Apr-16 03:58S 22°52' W 043°12'0 0.0
2017-Apr-16 03:22S 22°52' W 043°12'0 0.0
2017-Apr-16 02:58S 22°52' W 043°12'0 0.0
2017-Apr-16 02:28S 22°52' W 043°12'0 0.0
2017-Apr-16 01:58S 22°52' W 043°12'0 0.0
2017-Apr-16 01:22S 22°52' W 043°12'0 0.0
2017-Apr-16 00:58S 22°52' W 043°12'0 0.0
2017-Apr-16 00:28S 22°52' W 043°12'0 0.0
2017-Apr-15 23:58S 22°52' W 043°12'0 0.0
2017-Apr-15 23:28S 22°52' W 043°12'0 0.0
2017-Apr-15 22:58S 22°52' W 043°12'0 0.0
2017-Apr-15 22:28S 22°52' W 043°12'0 0.0
2017-Apr-15 21:58S 22°52' W 043°12'0 0.0
2017-Apr-15 21:28S 22°52' W 043°12'0 0.0
2017-Apr-15 20:58S 22°52' W 043°12'0 0.0
2017-Apr-15 20:28S 22°52' W 043°12'0 0.0
2017-Apr-15 20:00S 22°52' W 043°12'2 3.4
2017-Apr-15 19:30S 22°53' W 043°11'4 7.7
2017-Apr-15 19:01S 22°57' W 043°09'611.6
2017-Apr-15 18:30S 23°02' W 043°07'1 0.4
2017-Apr-15 16:59S 23°03' W 043°07'0 0.0
2017-Apr-15 16:29S 23°03' W 043°07'0 0.0
2017-Apr-15 15:47S 23°03' W 043°07'0 0.0
2017-Apr-15 15:23S 23°03' W 043°07'0 0.0
2017-Apr-15 14:53S 23°03' W 043°07'0 0.0
2017-Apr-15 14:29S 23°03' W 043°07'0 0.1
2017-Apr-15 13:23S 23°03' W 043°07'0 0.2
2017-Apr-15 12:59S 23°03' W 043°07'1 2.4
2017-Apr-15 12:30S 23°04' W 043°07'610.9
2017-Apr-15 11:57S 23°08' W 043°13'  
2017-Apr-12 14:29S 27°27' W 048°13'1413.9
2017-Apr-12 13:30S 27°41' W 048°13'815.4
2017-Apr-12 12:59S 27°49' W 048°15'  

Dump ship's entire track history